createdAt,value
2022-07-26T00:04:45.615Z,19.80
2022-07-26T00:09:48.540Z,19.80
2022-07-26T00:14:50.950Z,19.90
2022-07-26T00:19:52.724Z,19.70
2022-07-26T00:24:54.533Z,19.50
2022-07-26T00:29:56.594Z,19.40
2022-07-26T00:34:58.379Z,19.50
2022-07-26T00:40:00.254Z,19.40
2022-07-26T00:45:02.563Z,19.40
2022-07-26T00:50:06.847Z,19.40
2022-07-26T00:55:09.033Z,19.40
2022-07-26T01:00:19.616Z,19.40
2022-07-26T01:05:23.078Z,19.40
2022-07-26T01:10:25.507Z,19.30
2022-07-26T01:15:27.527Z,19.30
2022-07-26T01:20:29.329Z,19.40
2022-07-26T01:25:43.648Z,19.40
2022-07-26T01:30:49.104Z,19.50
2022-07-26T01:35:50.979Z,19.50
2022-07-26T01:40:53.126Z,19.50
2022-07-26T01:45:54.965Z,19.50
2022-07-26T01:50:57.235Z,19.70
2022-07-26T01:55:59.033Z,19.70
2022-07-26T02:01:00.812Z,19.70
2022-07-26T02:06:02.695Z,19.70
2022-07-26T02:11:04.704Z,19.70
2022-07-26T02:16:13.284Z,19.60
2022-07-26T02:21:15.157Z,19.60
2022-07-26T02:26:16.930Z,19.60
2022-07-26T02:31:18.735Z,19.60
2022-07-26T02:36:20.568Z,19.60
2022-07-26T02:41:22.475Z,19.50
2022-07-26T02:46:24.495Z,19.30
2022-07-26T02:51:26.754Z,19.30
2022-07-26T02:56:28.730Z,19.20
2022-07-26T03:01:30.847Z,19.20
2022-07-26T03:06:32.789Z,19.10
2022-07-26T03:11:34.554Z,19.10
2022-07-26T03:16:36.350Z,19.10
2022-07-26T03:21:38.189Z,19.00
2022-07-26T03:26:40.103Z,19.00
2022-07-26T03:31:41.872Z,18.90
2022-07-26T03:36:46.540Z,18.90
2022-07-26T03:41:48.368Z,18.90
2022-07-26T03:46:50.321Z,18.80
2022-07-26T03:51:52.086Z,18.90
2022-07-26T03:56:53.874Z,18.90
2022-07-26T04:01:55.754Z,18.80
2022-07-26T04:06:57.616Z,18.80
2022-07-26T04:12:05.509Z,18.80
2022-07-26T04:17:07.295Z,18.80
2022-07-26T04:22:09.086Z,18.90
2022-07-26T04:27:10.892Z,18.80
2022-07-26T04:32:12.634Z,18.80
2022-07-26T04:37:14.469Z,18.80
2022-07-26T04:42:16.227Z,18.80
2022-07-26T04:47:17.989Z,18.80
2022-07-26T04:52:19.778Z,18.80
2022-07-26T04:57:21.539Z,18.80
2022-07-26T05:02:23.633Z,19.00
2022-07-26T05:07:25.542Z,19.10
2022-07-26T05:12:27.285Z,19.10
2022-07-26T05:17:29.096Z,19.10
2022-07-26T05:22:31.027Z,19.10
2022-07-26T05:27:32.799Z,19.10
2022-07-26T05:32:34.566Z,19.10
2022-07-26T05:37:36.782Z,19.20
2022-07-26T05:42:38.602Z,19.20
2022-07-26T05:47:40.633Z,19.30
2022-07-26T05:52:42.467Z,19.30
2022-07-26T05:57:47.486Z,19.40
2022-07-26T06:02:51.621Z,19.50
2022-07-26T06:07:53.495Z,19.50
2022-07-26T06:12:55.295Z,19.70
2022-07-26T06:17:57.058Z,19.80
2022-07-26T06:22:59.471Z,19.80
2022-07-26T06:28:05.468Z,19.90
2022-07-26T06:33:07.829Z,19.90
2022-07-26T06:38:09.716Z,20.20
2022-07-26T06:43:11.539Z,20.50
2022-07-26T06:48:14.305Z,20.70
2022-07-26T06:53:16.504Z,20.70
2022-07-26T06:58:18.253Z,20.80
2022-07-26T07:03:20.060Z,20.80
2022-07-26T07:08:23.414Z,20.60
2022-07-26T07:13:25.253Z,20.90
2022-07-26T07:18:27.122Z,20.90
2022-07-26T07:23:28.983Z,20.80
2022-07-26T07:28:33.698Z,20.80
2022-07-26T07:33:43.711Z,20.90
2022-07-26T07:38:55.165Z,21.10
2022-07-26T07:43:58.459Z,21.30
2022-07-26T07:49:00.320Z,21.20
2022-07-26T07:54:05.400Z,21.00
2022-07-26T07:59:08.056Z,21.10
2022-07-26T08:04:10.495Z,21.50
2022-07-26T08:09:13.202Z,22.00
2022-07-26T08:14:15.205Z,22.30
2022-07-26T08:19:19.791Z,21.80
2022-07-26T08:24:24.358Z,21.80
2022-07-26T08:29:26.184Z,22.10
2022-07-26T08:34:28.086Z,22.30
2022-07-26T08:39:29.854Z,22.20
2022-07-26T08:44:31.674Z,22.00
2022-07-26T08:49:33.515Z,22.00
2022-07-26T08:54:35.982Z,22.10
2022-07-26T08:59:38.158Z,22.10
2022-07-26T09:04:44.614Z,22.00
2022-07-26T09:09:58.692Z,21.90
2022-07-26T09:15:01.646Z,22.10
2022-07-26T09:20:12.212Z,22.30
2022-07-26T09:25:22.027Z,22.80
2022-07-26T09:30:23.812Z,23.00
2022-07-26T09:35:49.545Z,23.40
2022-07-26T09:40:50.789Z,23.50
2022-07-26T09:46:06.915Z,23.40
2022-07-26T09:51:09.360Z,23.30
2022-07-26T09:56:11.743Z,23.50
2022-07-26T10:01:13.535Z,23.80
2022-07-26T10:06:15.435Z,24.00
2022-07-26T10:11:18.902Z,24.30
2022-07-26T10:16:34.496Z,23.80
2022-07-26T10:21:36.457Z,23.70
2022-07-26T10:26:43.287Z,23.50
2022-07-26T10:32:10.612Z,23.60
2022-07-26T10:37:24.219Z,24.00
2022-07-26T10:42:43.102Z,24.30
2022-07-26T10:48:09.518Z,24.30
2022-07-26T10:53:19.701Z,24.20
2022-07-26T10:58:24.083Z,23.70
2022-07-26T11:03:38.698Z,23.50
2022-07-26T11:08:47.781Z,23.60
2022-07-26T11:13:50.034Z,23.60
2022-07-26T11:18:52.479Z,23.70
2022-07-26T11:24:03.621Z,24.10
2022-07-26T11:29:06.812Z,24.70
2022-07-26T11:34:20.674Z,25.20
2022-07-26T11:39:34.065Z,25.20
2022-07-26T11:44:36.378Z,25.30
2022-07-26T11:55:00.132Z,25.20
2022-07-26T12:00:02.399Z,24.30
2022-07-26T12:05:24.672Z,24.70
2022-07-26T12:10:27.749Z,24.60
2022-07-26T12:15:44.439Z,24.50
2022-07-26T12:21:06.367Z,24.10
2022-07-26T12:26:23.319Z,23.50
2022-07-26T12:31:30.586Z,23.20
2022-07-26T12:36:34.098Z,22.10
2022-07-26T12:41:38.784Z,20.70
2022-07-26T12:46:40.715Z,20.10
2022-07-26T12:51:42.535Z,18.90
2022-07-26T12:56:44.303Z,18.50
2022-07-26T13:01:51.187Z,18.30
2022-07-26T13:06:53.073Z,18.30
2022-07-26T13:11:55.920Z,18.40
2022-07-26T13:16:57.756Z,18.40
2022-07-26T13:22:01.079Z,18.50
2022-07-26T13:27:03.568Z,18.40
2022-07-26T13:32:06.166Z,18.40
2022-07-26T13:37:08.484Z,18.60
2022-07-26T13:42:11.293Z,18.70
2022-07-26T13:47:13.176Z,18.80
2022-07-26T13:52:16.842Z,19.30
2022-07-26T13:57:18.847Z,19.70
2022-07-26T14:02:20.756Z,19.60
2022-07-26T14:07:22.668Z,19.90
2022-07-26T14:12:24.510Z,20.20
2022-07-26T14:17:26.318Z,20.20
2022-07-26T14:22:28.203Z,20.20
2022-07-26T14:27:30.025Z,20.50
2022-07-26T14:32:31.971Z,20.60
2022-07-26T14:37:43.504Z,21.10
2022-07-26T14:42:47.298Z,21.30
2022-07-26T14:47:49.196Z,21.20
2022-07-26T14:52:51.032Z,21.00
2022-07-26T14:57:52.887Z,21.90
2022-07-26T15:02:54.772Z,21.70
2022-07-26T15:07:57.021Z,21.80
2022-07-26T15:13:00.368Z,22.00
2022-07-26T15:18:02.185Z,21.80
2022-07-26T15:23:03.970Z,21.90
2022-07-26T15:28:05.838Z,22.40
2022-07-26T15:33:08.133Z,22.30
2022-07-26T15:38:09.915Z,22.80
2022-07-26T15:43:11.719Z,23.00
2022-07-26T15:48:18.340Z,23.90
2022-07-26T15:53:24.248Z,23.10
2022-07-26T15:58:26.938Z,22.90
2022-07-26T16:03:29.063Z,22.80
2022-07-26T16:08:30.961Z,22.50
2022-07-26T16:13:32.731Z,22.30
2022-07-26T16:18:34.548Z,22.30
2022-07-26T16:23:43.807Z,22.10
2022-07-26T16:28:45.772Z,22.30
2022-07-26T16:33:47.581Z,22.60
2022-07-26T16:38:49.769Z,22.50
2022-07-26T16:43:51.634Z,22.70
2022-07-26T16:48:53.484Z,22.50
2022-07-26T16:53:55.349Z,22.20
2022-07-26T16:58:57.149Z,22.50
2022-07-26T17:03:58.974Z,22.60
2022-07-26T17:09:00.781Z,22.60
2022-07-26T17:14:02.614Z,22.70
2022-07-26T17:19:04.484Z,22.40
2022-07-26T17:24:06.601Z,22.30
2022-07-26T17:29:08.846Z,22.40
2022-07-26T17:34:10.946Z,22.40
2022-07-26T17:39:15.588Z,22.10
2022-07-26T17:44:17.659Z,21.80
2022-07-26T17:49:19.605Z,21.80
2022-07-26T17:54:21.816Z,21.70
2022-07-26T17:59:23.679Z,21.80
2022-07-26T18:04:25.426Z,21.70
2022-07-26T18:09:27.256Z,21.50
2022-07-26T18:14:29.104Z,21.30
2022-07-26T18:19:32.942Z,21.10
2022-07-26T18:24:34.712Z,21.00
2022-07-26T18:29:36.494Z,21.00
2022-07-26T18:34:38.423Z,20.90
2022-07-26T18:39:41.367Z,20.80
2022-07-26T18:44:43.245Z,20.70
2022-07-26T18:49:45.187Z,20.60
2022-07-26T18:54:46.999Z,20.60
2022-07-26T18:59:48.992Z,20.50
2022-07-26T19:04:51.011Z,20.40
2022-07-26T19:09:58.168Z,20.30
2022-07-26T19:15:00.702Z,20.20
2022-07-26T19:20:03.862Z,20.10
2022-07-26T19:25:08.996Z,20.00
2022-07-26T19:30:12.060Z,20.00
2022-07-26T19:35:14.019Z,19.80
2022-07-26T19:40:16.066Z,19.80
2022-07-26T19:45:18.049Z,19.80
2022-07-26T19:50:19.878Z,19.70
2022-07-26T19:55:22.647Z,19.60
2022-07-26T20:00:24.473Z,19.50
2022-07-26T20:05:26.341Z,19.50
2022-07-26T20:10:31.988Z,19.40
2022-07-26T20:15:35.427Z,19.40
2022-07-26T20:20:37.442Z,19.30
2022-07-26T20:25:39.264Z,19.30
2022-07-26T20:30:41.258Z,19.20
2022-07-26T20:35:43.215Z,19.10
2022-07-26T20:40:46.733Z,19.10
2022-07-26T20:45:49.257Z,19.00
2022-07-26T20:50:51.110Z,18.90
2022-07-26T20:55:52.893Z,18.80
2022-07-26T21:00:54.821Z,18.70
2022-07-26T21:05:56.755Z,18.70
2022-07-26T21:10:58.528Z,18.50
2022-07-26T21:16:00.818Z,18.40
2022-07-26T21:21:02.612Z,18.40
2022-07-26T21:26:04.433Z,18.30
2022-07-26T21:31:06.250Z,18.20
2022-07-26T21:36:08.070Z,18.10
2022-07-26T21:41:13.455Z,18.00
2022-07-26T21:46:15.575Z,18.00
2022-07-26T21:51:17.630Z,17.90
2022-07-26T21:56:19.571Z,18.00
2022-07-26T22:01:21.469Z,17.90
2022-07-26T22:06:23.310Z,17.90
2022-07-26T22:11:25.242Z,17.90
2022-07-26T22:16:27.337Z,17.90
2022-07-26T22:21:29.131Z,17.80
2022-07-26T22:26:31.212Z,17.80
2022-07-26T22:31:33.509Z,17.70
2022-07-26T22:36:35.423Z,17.70
2022-07-26T22:41:57.539Z,17.60
2022-07-26T22:46:58.913Z,17.50
2022-07-26T22:52:00.723Z,17.40
2022-07-26T22:57:02.539Z,17.40
2022-07-26T23:02:04.707Z,17.40
2022-07-26T23:07:06.745Z,17.40
2022-07-26T23:12:10.294Z,17.30
2022-07-26T23:17:12.040Z,17.20
2022-07-26T23:22:13.805Z,17.20
2022-07-26T23:27:20.016Z,17.20
2022-07-26T23:32:22.219Z,17.10
2022-07-26T23:37:24.037Z,17.00
2022-07-26T23:42:25.805Z,16.90
2022-07-26T23:47:27.621Z,17.00
2022-07-26T23:52:29.445Z,16.90
2022-07-26T23:57:31.210Z,16.80
